createdAt,value
2017-12-14T00:01:47.480Z,93812.45
2017-12-14T00:04:14.937Z,93771.22
2017-12-14T00:06:42.413Z,93786.31
2017-12-14T00:09:09.868Z,93786.08
2017-12-14T00:11:37.341Z,93797.36
2017-12-14T00:14:04.797Z,93791.16
2017-12-14T00:16:32.268Z,93793.99
2017-12-14T00:18:59.724Z,93786.39
2017-12-14T00:21:27.212Z,93789.61
2017-12-14T00:23:54.677Z,93791.22
2017-12-14T00:26:22.148Z,93779.16
2017-12-14T00:28:49.605Z,93784.47
2017-12-14T00:31:17.077Z,93774.33
2017-12-14T00:33:44.537Z,93774.42
2017-12-14T00:36:12.013Z,93775.87
2017-12-14T00:38:39.469Z,93775.39
2017-12-14T00:41:06.953Z,93772.55
2017-12-14T00:43:34.412Z,93771.98
2017-12-14T00:46:01.889Z,93765.41
2017-12-14T00:48:29.340Z,93771.73
2017-12-14T00:50:56.812Z,93770.66
2017-12-14T00:53:24.260Z,93777.83
2017-12-14T00:55:51.880Z,93774.64
2017-12-14T00:58:19.338Z,93767.92
2017-12-14T01:00:46.814Z,93774.85
2017-12-14T01:03:14.274Z,93770.19
2017-12-14T01:05:41.757Z,93757.36
2017-12-14T01:08:09.208Z,93755.25
2017-12-14T01:10:36.681Z,93753.07
2017-12-14T01:13:04.141Z,93755.86
2017-12-14T01:15:31.620Z,93740.86
2017-12-14T01:17:59.074Z,93742.84
2017-12-14T01:20:26.524Z,93741.98
2017-12-14T01:22:54.044Z,93728.78
2017-12-14T01:25:21.499Z,93729.41
2017-12-14T01:27:48.970Z,93731.17
2017-12-14T01:30:16.430Z,93729.33
2017-12-14T01:32:43.912Z,93735.19
2017-12-14T01:35:11.368Z,93728.27
2017-12-14T01:37:38.841Z,93723.68
2017-12-14T01:40:06.347Z,93734.03
2017-12-14T01:42:33.821Z,93716.31
2017-12-14T01:45:01.362Z,93719.42
2017-12-14T01:47:28.851Z,93726.97
2017-12-14T01:49:56.309Z,93729.03
2017-12-14T01:52:23.791Z,93736.00
2017-12-14T01:54:51.295Z,93750.87
2017-12-14T01:57:18.772Z,93742.50
2017-12-14T01:59:46.229Z,93746.11
2017-12-14T02:02:13.704Z,93724.15
2017-12-14T02:04:41.161Z,93710.64
2017-12-14T02:07:08.639Z,93713.56
2017-12-14T02:09:36.097Z,93711.41
2017-12-14T02:12:03.565Z,93720.70
2017-12-14T02:14:31.020Z,93717.55
2017-12-14T02:16:58.477Z,93708.20
2017-12-14T02:19:27.032Z,93702.45
2017-12-14T02:21:54.490Z,93709.47
2017-12-14T02:24:21.956Z,93713.15
2017-12-14T02:26:49.413Z,93715.56
2017-12-14T02:29:16.894Z,93715.33
2017-12-14T02:31:44.361Z,93708.81
2017-12-14T02:34:11.837Z,93711.74
2017-12-14T02:36:39.293Z,93717.45
2017-12-14T02:39:06.769Z,93720.79
2017-12-14T02:41:34.318Z,93702.25
2017-12-14T02:44:01.878Z,93684.88
2017-12-14T02:46:29.329Z,93674.17
2017-12-14T02:48:56.800Z,93667.55
2017-12-14T02:51:24.509Z,93668.18
2017-12-14T02:53:51.985Z,93671.80
2017-12-14T02:56:19.445Z,93683.05
2017-12-14T02:58:46.924Z,93687.34
2017-12-14T03:01:14.378Z,93687.48
2017-12-14T03:03:41.854Z,93675.85
2017-12-14T03:06:09.309Z,93678.80
2017-12-14T03:08:36.860Z,93672.53
2017-12-14T03:11:04.313Z,93684.45
2017-12-14T03:13:31.790Z,93688.81
2017-12-14T03:15:59.264Z,93679.36
2017-12-14T03:18:26.741Z,93689.72
2017-12-14T03:20:54.197Z,93697.37
2017-12-14T03:23:21.664Z,93690.11
2017-12-14T03:25:49.120Z,93687.94
2017-12-14T03:28:16.593Z,93715.36
2017-12-14T03:30:44.049Z,93714.36
2017-12-14T03:33:11.521Z,93716.86
2017-12-14T03:35:38.981Z,93706.93
2017-12-14T03:38:06.457Z,93715.47
2017-12-14T03:40:33.908Z,93723.91
2017-12-14T03:43:01.382Z,93701.47
2017-12-14T03:45:28.832Z,93713.77
2017-12-14T03:47:56.301Z,93700.63
2017-12-14T03:50:23.752Z,93709.42
2017-12-14T03:52:51.229Z,93704.56
2017-12-14T03:55:18.689Z,93697.29
2017-12-14T03:57:46.165Z,93701.58
2017-12-14T04:00:13.828Z,93712.09
2017-12-14T04:02:41.307Z,93670.41
2017-12-14T04:05:08.765Z,93688.53
2017-12-14T04:07:36.233Z,93692.97
2017-12-14T04:10:03.701Z,93676.02
2017-12-14T04:12:31.185Z,93679.83
2017-12-14T04:14:58.641Z,93674.53
2017-12-14T04:17:26.097Z,93667.86
2017-12-14T04:19:53.564Z,93676.63
2017-12-14T04:22:21.021Z,93661.08
2017-12-14T04:24:48.488Z,93660.20
2017-12-14T04:27:15.944Z,93667.41
2017-12-14T04:29:43.411Z,93651.58
2017-12-14T04:32:10.869Z,93656.74
2017-12-14T04:34:38.345Z,93660.03
2017-12-14T04:37:05.805Z,93658.22
2017-12-14T04:39:33.273Z,93676.19
2017-12-14T04:42:00.749Z,93647.08
2017-12-14T04:44:28.220Z,93625.86
2017-12-14T04:46:55.681Z,93657.68
2017-12-14T04:49:23.161Z,93655.03
2017-12-14T04:51:50.613Z,93644.73
2017-12-14T04:54:18.097Z,93644.34
2017-12-14T04:56:45.548Z,93651.93
2017-12-14T04:59:13.058Z,93628.64
2017-12-14T05:01:40.517Z,93643.61
2017-12-14T05:04:07.993Z,93649.20
2017-12-14T05:06:35.468Z,93670.06
2017-12-14T05:09:02.948Z,93619.52
2017-12-14T05:11:30.425Z,93653.73
2017-12-14T05:13:57.896Z,93668.02
2017-12-14T05:16:25.361Z,93679.53
2017-12-14T05:18:52.833Z,93682.76
2017-12-14T05:21:20.305Z,93633.34
2017-12-14T05:23:47.789Z,93665.63
2017-12-14T05:26:15.252Z,93600.27
2017-12-14T05:28:42.705Z,93671.42
2017-12-14T05:31:10.206Z,93666.41
2017-12-14T05:33:37.669Z,93671.58
2017-12-14T05:36:05.138Z,93629.74
2017-12-14T05:38:32.600Z,93654.20
2017-12-14T05:41:00.069Z,93680.91
2017-12-14T05:43:27.572Z,93660.05
2017-12-14T05:45:55.077Z,93686.31
2017-12-14T05:48:22.537Z,93685.24
2017-12-14T05:50:50.822Z,93696.03
2017-12-14T05:53:18.281Z,93700.95
2017-12-14T05:55:45.756Z,93697.61
2017-12-14T05:58:13.213Z,93706.37
2017-12-14T06:00:40.681Z,93712.60
2017-12-14T06:03:08.176Z,93723.98
2017-12-14T06:05:35.645Z,93728.42
2017-12-14T06:08:03.097Z,93748.24
2017-12-14T06:10:30.568Z,93709.95
2017-12-14T06:12:58.021Z,93734.87
2017-12-14T06:15:25.497Z,93733.53
2017-12-14T06:17:52.952Z,93707.25
2017-12-14T06:20:20.425Z,93730.25
2017-12-14T06:22:47.884Z,93735.58
2017-12-14T06:25:15.366Z,93744.36
2017-12-14T06:27:42.825Z,93748.68
2017-12-14T06:30:10.297Z,93759.70
2017-12-14T06:32:37.756Z,93764.27
2017-12-14T06:35:05.232Z,93761.18
2017-12-14T06:37:32.688Z,93897.69
2017-12-14T06:39:59.712Z,93978.47
2017-12-14T06:42:26.716Z,93979.87
2017-12-14T06:44:54.206Z,94026.53
2017-12-14T06:47:21.209Z,94036.73
2017-12-14T06:49:48.682Z,94019.88
2017-12-14T06:52:16.140Z,94014.91
2017-12-14T06:54:43.160Z,94050.20
2017-12-14T06:57:10.156Z,94024.77
2017-12-14T06:59:37.172Z,93990.22
2017-12-14T07:02:04.168Z,94014.91
2017-12-14T07:04:31.190Z,94026.42
2017-12-14T07:06:58.208Z,94013.81
2017-12-14T07:09:25.228Z,94028.08
2017-12-14T07:11:52.256Z,94008.92
2017-12-14T07:14:19.256Z,94029.95
2017-12-14T07:16:46.288Z,93994.69
2017-12-14T07:19:13.285Z,94013.82
2017-12-14T07:21:40.304Z,94066.79
2017-12-14T07:24:07.304Z,94074.19
2017-12-14T07:26:34.337Z,94072.64
2017-12-14T07:29:01.337Z,94028.52
2017-12-14T07:31:28.355Z,94075.70
2017-12-14T07:33:55.356Z,94070.70
2017-12-14T07:36:22.371Z,94070.17
2017-12-14T07:38:49.367Z,94023.25
2017-12-14T07:41:16.380Z,93975.56
2017-12-14T07:43:49.333Z,93959.09
2017-12-14T07:46:22.324Z,93994.05
2017-12-14T07:48:55.157Z,94052.87
2017-12-14T07:51:22.172Z,94066.75
2017-12-14T07:53:49.184Z,94068.25
2017-12-14T07:56:16.200Z,94069.16
2017-12-14T07:58:43.204Z,94105.24
2017-12-14T08:01:10.228Z,94128.14
2017-12-14T08:03:37.268Z,94131.52
2017-12-14T08:06:04.304Z,94135.61
2017-12-14T08:08:31.311Z,94142.40
2017-12-14T08:10:58.324Z,94167.84
2017-12-14T08:13:25.323Z,94163.46
2017-12-14T08:15:52.347Z,94162.27
2017-12-14T08:18:19.344Z,94170.98
2017-12-14T08:20:46.350Z,94190.41
2017-12-14T08:23:13.445Z,94199.22
2017-12-14T08:25:40.460Z,94151.33
2017-12-14T08:28:07.476Z,94191.06
2017-12-14T08:30:34.475Z,94199.47
2017-12-14T08:33:01.517Z,94200.27
2017-12-14T08:35:28.511Z,94208.56
2017-12-14T08:37:55.533Z,94182.02
2017-12-14T08:40:22.532Z,94203.75
2017-12-14T08:42:49.552Z,94204.95
2017-12-14T08:45:16.551Z,94227.89
2017-12-14T08:47:43.572Z,94192.91
2017-12-14T08:50:10.596Z,94198.07
2017-12-14T08:52:37.616Z,94204.80
2017-12-14T08:55:04.620Z,94197.16
2017-12-14T08:57:31.638Z,94225.64
2017-12-14T08:59:58.659Z,94241.10
2017-12-14T09:02:25.677Z,94242.44
2017-12-14T09:04:52.672Z,94243.45
2017-12-14T09:07:19.692Z,94237.90
2017-12-14T09:09:46.696Z,94253.37
2017-12-14T09:12:13.782Z,94242.16
2017-12-14T09:14:40.784Z,94261.14
2017-12-14T09:17:07.809Z,94269.38
2017-12-14T09:19:34.817Z,94261.45
2017-12-14T09:22:01.840Z,94280.12
2017-12-14T09:24:28.852Z,94279.48
2017-12-14T09:26:55.868Z,94277.59
2017-12-14T09:29:22.868Z,94282.33
2017-12-14T09:31:49.884Z,94273.78
2017-12-14T09:34:16.888Z,94297.47
2017-12-14T09:36:43.908Z,94296.53
2017-12-14T09:39:10.924Z,94298.59
2017-12-14T09:41:37.945Z,94291.85
2017-12-14T09:44:04.944Z,94302.02
2017-12-14T09:46:31.963Z,94317.83
2017-12-14T09:48:58.983Z,94312.81
2017-12-14T09:51:26.002Z,94323.16
2017-12-14T09:53:53.029Z,94311.27
2017-12-14T09:56:20.029Z,94330.59
2017-12-14T09:58:47.044Z,94331.88
2017-12-14T10:01:14.052Z,94331.39
2017-12-14T10:03:41.069Z,94331.02
2017-12-14T10:06:08.073Z,94327.22
2017-12-14T10:08:35.088Z,94334.52
2017-12-14T10:11:02.084Z,94331.02
2017-12-14T10:13:29.124Z,94339.89
2017-12-14T10:15:56.129Z,94328.75
2017-12-14T10:18:23.146Z,94328.88
2017-12-14T10:20:50.149Z,94316.87
2017-12-14T10:23:17.176Z,94304.78
2017-12-14T10:25:44.177Z,94307.23
2017-12-14T10:28:11.197Z,94291.14
2017-12-14T10:30:38.209Z,94280.15
2017-12-14T10:33:05.227Z,94274.19
2017-12-14T10:35:32.241Z,94278.09
2017-12-14T10:37:59.260Z,94285.98
2017-12-14T10:40:26.268Z,94278.41
2017-12-14T10:42:53.281Z,94273.42
2017-12-14T10:45:20.281Z,94267.23
2017-12-14T10:47:47.409Z,94279.78
2017-12-14T10:50:14.769Z,94256.36
2017-12-14T10:52:41.805Z,94266.45
2017-12-14T10:55:08.827Z,94264.45
2017-12-14T10:57:35.844Z,94267.68
2017-12-14T11:00:02.849Z,94249.75
2017-12-14T11:02:29.875Z,94253.59
2017-12-14T11:04:56.884Z,94258.98
2017-12-14T11:07:23.904Z,94241.64
2017-12-14T11:09:50.939Z,94231.20
2017-12-14T11:12:17.945Z,94236.02
2017-12-14T11:14:44.966Z,94216.27
2017-12-14T11:17:11.969Z,94219.76
2017-12-14T11:19:38.989Z,94209.08
2017-12-14T11:22:05.987Z,94198.27
2017-12-14T11:24:33.001Z,94187.17
2017-12-14T11:27:00.009Z,94191.78
2017-12-14T11:29:27.025Z,94188.05
2017-12-14T11:31:54.020Z,94184.27
2017-12-14T11:34:21.040Z,94179.98
2017-12-14T11:36:48.064Z,94180.18
2017-12-14T11:39:15.080Z,94181.70
2017-12-14T11:41:42.082Z,94162.89
2017-12-14T11:44:09.105Z,94174.78
2017-12-14T11:46:36.104Z,94183.10
2017-12-14T11:49:03.120Z,94190.75
2017-12-14T11:51:30.121Z,94198.75
2017-12-14T11:53:57.141Z,94186.65
2017-12-14T11:56:24.144Z,94191.12
2017-12-14T11:58:51.160Z,94192.20
2017-12-14T12:01:18.210Z,94196.70
2017-12-14T12:03:45.196Z,94188.26
2017-12-14T12:06:12.193Z,94191.73
2017-12-14T12:08:39.212Z,94183.86
2017-12-14T12:11:06.217Z,94178.35
2017-12-14T12:13:33.240Z,94175.80
2017-12-14T12:16:00.244Z,94178.05
2017-12-14T12:18:27.268Z,94175.32
2017-12-14T12:20:54.264Z,94179.81
2017-12-14T12:23:21.279Z,94183.00
2017-12-14T12:25:48.281Z,94174.93
2017-12-14T12:28:15.313Z,94181.73
2017-12-14T12:30:42.316Z,94181.42
2017-12-14T12:33:09.332Z,94180.80
2017-12-14T12:35:36.333Z,94186.85
2017-12-14T12:38:03.352Z,94184.94
2017-12-14T12:40:30.360Z,94189.08
2017-12-14T12:42:57.377Z,94180.44
2017-12-14T12:45:24.378Z,94180.63
2017-12-14T12:47:51.396Z,94172.20
2017-12-14T12:50:18.400Z,94173.36
2017-12-14T12:52:45.420Z,94157.62
2017-12-14T12:55:12.453Z,94160.44
2017-12-14T12:57:39.472Z,94156.69
2017-12-14T13:00:06.549Z,94153.26
2017-12-14T13:02:33.564Z,94147.91
2017-12-14T13:05:00.689Z,94160.05
2017-12-14T13:07:27.708Z,94158.36
2017-12-14T13:09:54.704Z,94157.86
2017-12-14T13:12:21.704Z,94161.11
2017-12-14T13:14:48.724Z,94163.20
2017-12-14T13:17:15.724Z,94164.62
2017-12-14T13:19:42.740Z,94157.87
2017-12-14T13:22:09.748Z,94167.33
2017-12-14T13:24:36.772Z,94151.36
2017-12-14T13:27:03.776Z,94166.64
2017-12-14T13:29:30.794Z,94158.13
2017-12-14T13:31:57.806Z,94158.37
2017-12-14T13:34:24.829Z,94159.16
2017-12-14T13:36:51.832Z,94159.95
2017-12-14T13:39:18.852Z,94152.06
2017-12-14T13:41:45.848Z,94152.54
2017-12-14T13:44:12.869Z,94143.66
2017-12-14T13:46:39.868Z,94149.53
2017-12-14T13:49:06.885Z,94144.97
2017-12-14T13:51:33.879Z,94158.89
2017-12-14T13:54:00.896Z,94141.13
2017-12-14T13:56:27.900Z,94143.16
2017-12-14T13:58:54.925Z,94133.89
2017-12-14T14:01:21.926Z,94148.24
2017-12-14T14:03:48.948Z,94142.66
2017-12-14T14:06:15.951Z,94141.06
2017-12-14T14:08:42.976Z,94141.80
2017-12-14T14:11:09.976Z,94128.77
2017-12-14T14:13:37.055Z,94117.13
2017-12-14T14:16:04.056Z,94118.77
2017-12-14T14:18:31.076Z,94100.55
2017-12-14T14:20:58.081Z,94086.59
2017-12-14T14:23:25.100Z,94111.56
2017-12-14T14:25:52.096Z,94110.30
2017-12-14T14:28:19.096Z,94110.44
2017-12-14T14:30:46.116Z,94104.13
2017-12-14T14:33:13.115Z,94103.00
2017-12-14T14:35:40.131Z,94096.70
2017-12-14T14:38:07.128Z,94102.34
2017-12-14T14:40:34.145Z,94106.70
2017-12-14T14:43:01.149Z,94099.59
2017-12-14T14:45:28.197Z,94107.96
2017-12-14T14:47:55.201Z,94101.31
2017-12-14T14:50:22.216Z,94103.00
2017-12-14T14:52:49.230Z,94098.61
2017-12-14T14:55:16.244Z,94099.76
2017-12-14T14:57:43.240Z,94095.63
2017-12-14T15:00:11.097Z,94088.16
2017-12-14T15:02:38.096Z,94087.44
2017-12-14T15:05:05.156Z,94085.08
2017-12-14T15:07:32.152Z,94085.73
2017-12-14T15:09:59.169Z,94085.91
2017-12-14T15:12:26.252Z,94076.36
2017-12-14T15:14:53.268Z,94075.19
2017-12-14T15:17:20.272Z,94072.31
2017-12-14T15:19:47.300Z,94058.98
2017-12-14T15:22:14.301Z,94063.87
2017-12-14T15:24:41.321Z,94056.23
2017-12-14T15:27:08.324Z,94061.63
2017-12-14T15:29:35.344Z,94059.72
2017-12-14T15:32:02.344Z,94043.55
2017-12-14T15:34:29.360Z,94045.95
2017-12-14T15:36:56.365Z,94041.52
2017-12-14T15:39:23.385Z,94041.09
2017-12-14T15:41:50.389Z,94037.58
2017-12-14T15:44:17.408Z,94044.06
2017-12-14T15:46:44.416Z,94038.08
2017-12-14T15:49:11.439Z,94027.95
2017-12-14T15:51:38.451Z,94023.72
2017-12-14T15:54:05.451Z,94011.96
2017-12-14T15:56:32.473Z,94005.74
2017-12-14T15:58:59.476Z,94001.63
2017-12-14T16:01:27.412Z,93996.50
2017-12-14T16:03:54.417Z,93993.74
2017-12-14T16:06:21.440Z,93998.06
2017-12-14T16:08:48.435Z,93998.20
2017-12-14T16:11:15.460Z,93994.47
2017-12-14T16:13:42.464Z,93985.35
2017-12-14T16:16:09.488Z,93986.48
2017-12-14T16:18:36.499Z,93986.48
2017-12-14T16:21:03.524Z,93983.80
2017-12-14T16:23:30.539Z,93975.50
2017-12-14T16:25:57.556Z,93976.73
2017-12-14T16:28:24.557Z,93957.80
2017-12-14T16:30:51.620Z,93957.45
2017-12-14T16:33:18.627Z,93947.80
2017-12-14T16:35:45.644Z,93956.43
2017-12-14T16:38:12.652Z,93945.17
2017-12-14T16:40:39.669Z,93940.60
2017-12-14T16:43:06.668Z,93945.12
2017-12-14T16:45:33.685Z,93943.62
2017-12-14T16:48:00.701Z,93932.25
2017-12-14T16:50:27.728Z,93923.95
2017-12-14T16:52:54.741Z,93925.23
2017-12-14T16:55:21.756Z,93920.45
2017-12-14T16:57:48.756Z,93912.38
2017-12-14T17:00:15.772Z,93923.30
2017-12-14T17:02:42.772Z,93915.55
2017-12-14T17:05:09.788Z,93905.42
2017-12-14T17:07:36.788Z,93893.45
2017-12-14T17:10:03.805Z,93887.89
2017-12-14T17:12:30.817Z,93875.28
2017-12-14T17:14:57.833Z,93877.45
2017-12-14T17:17:24.868Z,93867.08
2017-12-14T17:19:51.961Z,93865.59
2017-12-14T17:22:18.960Z,93846.80
2017-12-14T17:24:45.980Z,93850.52
2017-12-14T17:27:12.979Z,93839.22
2017-12-14T17:29:40.005Z,93836.31
2017-12-14T17:32:07.003Z,93845.53
2017-12-14T17:34:34.038Z,93833.05
2017-12-14T17:37:01.041Z,93811.97
2017-12-14T17:39:28.057Z,93821.86
2017-12-14T17:41:55.056Z,93825.33
2017-12-14T17:44:22.076Z,93827.60
2017-12-14T17:46:49.084Z,93842.75
2017-12-14T17:49:16.080Z,93869.71
2017-12-14T17:51:43.101Z,93860.21
2017-12-14T17:54:10.110Z,93857.13
2017-12-14T17:56:37.128Z,93845.83
2017-12-14T17:59:04.138Z,93842.62
2017-12-14T18:01:31.156Z,93836.92
2017-12-14T18:03:58.156Z,93841.87
2017-12-14T18:06:25.176Z,93845.48
2017-12-14T18:08:52.181Z,93844.73
2017-12-14T18:11:19.210Z,93836.56
2017-12-14T18:13:46.220Z,93839.44
2017-12-14T18:16:13.243Z,93823.48
2017-12-14T18:18:40.244Z,93812.83
2017-12-14T18:21:07.332Z,93819.39
2017-12-14T18:23:34.329Z,93809.73
2017-12-14T18:26:01.344Z,93800.04
2017-12-14T18:28:28.348Z,93804.97
2017-12-14T18:30:55.388Z,93793.47
2017-12-14T18:33:22.393Z,93773.93
2017-12-14T18:35:49.417Z,93775.08
2017-12-14T18:38:16.460Z,93776.09
2017-12-14T18:40:43.476Z,93763.55
2017-12-14T18:43:10.485Z,93759.28
2017-12-14T18:45:37.484Z,93745.64
2017-12-14T18:48:04.508Z,93751.23
2017-12-14T18:50:31.516Z,93751.34
2017-12-14T18:52:58.533Z,93747.97
2017-12-14T18:55:25.532Z,93755.29
2017-12-14T18:57:52.560Z,93757.11
2017-12-14T19:00:19.557Z,93752.02
2017-12-14T19:02:46.574Z,93754.59
2017-12-14T19:05:13.580Z,93748.64
2017-12-14T19:07:40.605Z,93770.94
2017-12-14T19:10:07.616Z,93759.66
2017-12-14T19:12:34.636Z,93752.75
2017-12-14T19:15:01.648Z,93754.48
2017-12-14T19:17:28.800Z,93756.56
2017-12-14T19:19:55.799Z,93750.51
2017-12-14T19:22:22.827Z,93747.16
2017-12-14T19:24:49.829Z,93737.00
2017-12-14T19:27:16.848Z,93742.13
2017-12-14T19:29:43.851Z,93726.75
2017-12-14T19:32:10.881Z,93713.92
2017-12-14T19:34:37.889Z,93717.94
2017-12-14T19:37:04.912Z,93719.70
2017-12-14T19:39:31.916Z,93726.42
2017-12-14T19:41:58.941Z,93715.33
2017-12-14T19:44:25.944Z,93712.33
2017-12-14T19:46:53.076Z,93701.06
2017-12-14T19:49:20.074Z,93693.87
2017-12-14T19:51:47.171Z,93681.18
2017-12-14T19:54:14.180Z,93679.48
2017-12-14T19:56:41.266Z,93672.59
2017-12-14T19:59:08.273Z,93676.25
2017-12-14T20:01:35.294Z,93681.95
2017-12-14T20:04:02.306Z,93681.69
2017-12-14T20:06:29.320Z,93678.76
2017-12-14T20:08:56.325Z,93672.49
2017-12-14T20:11:23.342Z,93679.91
2017-12-14T20:13:50.340Z,93660.20
2017-12-14T20:16:17.341Z,93670.74
2017-12-14T20:18:44.356Z,93667.70
2017-12-14T20:21:11.361Z,93665.86
2017-12-14T20:23:38.381Z,93672.01
2017-12-14T20:26:05.381Z,93664.98
2017-12-14T20:28:32.396Z,93666.34
2017-12-14T20:30:59.396Z,93654.37
2017-12-14T20:33:26.475Z,93656.12
2017-12-14T20:35:53.482Z,93663.81
2017-12-14T20:38:20.505Z,93670.20
2017-12-14T20:40:47.504Z,93669.48
2017-12-14T20:43:14.520Z,93665.45
2017-12-14T20:45:41.520Z,93657.20
2017-12-14T20:48:08.536Z,93656.31
2017-12-14T20:50:35.536Z,93659.39
2017-12-14T20:53:02.552Z,93663.06
2017-12-14T20:55:29.550Z,93658.75
2017-12-14T20:57:56.568Z,93663.38
2017-12-14T21:00:23.571Z,93670.61
2017-12-14T21:02:50.593Z,93675.52
2017-12-14T21:05:17.600Z,93669.88
2017-12-14T21:07:44.628Z,93661.45
2017-12-14T21:10:11.625Z,93658.99
2017-12-14T21:12:38.721Z,93651.35
2017-12-14T21:15:05.721Z,93658.19
2017-12-14T21:17:32.744Z,93654.73
2017-12-14T21:19:59.768Z,93659.75
2017-12-14T21:22:26.785Z,93654.93
2017-12-14T21:24:53.871Z,93652.31
2017-12-14T21:27:20.888Z,93636.27
2017-12-14T21:29:47.890Z,93621.11
2017-12-14T21:32:14.916Z,93625.16
2017-12-14T21:34:41.920Z,93627.20
2017-12-14T21:37:08.920Z,93634.94
2017-12-14T21:39:35.944Z,93631.53
2017-12-14T21:42:02.984Z,93639.44
2017-12-14T21:44:30.000Z,93640.86
2017-12-14T21:46:57.000Z,93633.52
2017-12-14T21:49:24.021Z,93624.16
2017-12-14T21:51:51.072Z,93619.27
2017-12-14T21:54:18.094Z,93602.34
2017-12-14T21:56:45.167Z,93602.35
2017-12-14T21:59:12.186Z,93602.28
2017-12-14T22:01:39.197Z,93578.05
2017-12-14T22:04:06.215Z,93588.80
2017-12-14T22:06:33.214Z,93604.48
2017-12-14T22:09:00.231Z,93605.44
2017-12-14T22:11:27.247Z,93596.09
2017-12-14T22:13:54.505Z,93600.12
2017-12-14T22:16:21.597Z,93596.27
2017-12-14T22:18:48.705Z,93588.66
2017-12-14T22:21:15.854Z,93588.63
2017-12-14T22:23:42.962Z,93587.58
2017-12-14T22:26:10.058Z,93581.09
2017-12-14T22:28:37.165Z,93567.25
2017-12-14T22:31:04.254Z,93581.28
2017-12-14T22:33:31.350Z,93574.28
2017-12-14T22:35:58.357Z,93576.55
2017-12-14T22:38:25.388Z,93575.75
2017-12-14T22:40:52.431Z,93564.64
2017-12-14T22:43:19.444Z,93557.57
2017-12-14T22:45:46.441Z,93538.88
2017-12-14T22:48:13.476Z,93527.19
2017-12-14T22:50:40.472Z,93529.48
2017-12-14T22:53:07.490Z,93538.37
2017-12-14T22:55:34.501Z,93524.43
2017-12-14T22:58:01.523Z,93527.83
2017-12-14T23:00:28.609Z,93530.41
2017-12-14T23:02:55.624Z,93535.98
2017-12-14T23:05:22.624Z,93528.53
2017-12-14T23:07:49.650Z,93516.18
2017-12-14T23:10:16.652Z,93538.63
2017-12-14T23:12:43.751Z,93540.38
2017-12-14T23:15:10.757Z,93541.53
2017-12-14T23:17:37.773Z,93546.70
2017-12-14T23:20:04.776Z,93557.60
2017-12-14T23:22:31.792Z,93562.67
2017-12-14T23:24:58.792Z,93574.92
2017-12-14T23:27:25.813Z,93571.38
2017-12-14T23:29:52.817Z,93561.14
2017-12-14T23:32:19.842Z,93559.27
2017-12-14T23:34:46.847Z,93549.40
2017-12-14T23:37:13.920Z,93531.83
2017-12-14T23:39:40.940Z,93527.97
2017-12-14T23:42:07.936Z,93520.84
2017-12-14T23:44:34.948Z,93521.64
2017-12-14T23:47:01.944Z,93524.97
2017-12-14T23:49:28.960Z,93532.14
2017-12-14T23:51:55.956Z,93524.62
2017-12-14T23:54:22.972Z,93508.76
2017-12-14T23:56:49.994Z,93511.55
2017-12-14T23:59:17.008Z,93510.37
